Time;durP1;ratioP1;P1;durP2;ratioP2;P2;SDS_P1;SDS_P2;PMS_P1;PMS_P2;Temp;Humidity;BMP_temperature;BMP_pressure;BME280_temperature;BME280_humidity;BME280_pressure;Samples;Min_cycle;Max_cycle;Signal;HPM_P1;HPM_P2
2022/09/28 00:01:44;;;;;;;11.33;7.87;;;;;;;;;;5035310;28;20175;-71
2022/09/28 00:04:11;;;;;;;10.40;8.20;;;;;;;;;;5017773;28;20183;-72
2022/09/28 00:06:37;;;;;;;13.73;8.57;;;;;;;;;;5035265;28;20675;-72
2022/09/28 00:09:03;;;;;;;8.80;7.87;;;;;;;;;;5017572;28;20207;-72
2022/09/28 00:11:29;;;;;;;10.23;8.13;;;;;;;;;;5035315;28;20175;-72
2022/09/28 00:13:57;;;;;;;10.70;8.50;;;;;;;;;;5017591;28;20290;-73
2022/09/28 00:16:25;;;;;;;12.93;9.43;;;;;;;;;;5017629;28;20742;-72
2022/09/28 00:18:51;;;;;;;11.90;9.17;;;;;;;;;;5035134;28;20186;-72
2022/09/28 00:21:21;;;;;;;11.90;9.13;;;;;;;;;;5035236;28;20175;-71
2022/09/28 00:26:33;;;;;;;12.87;9.17;;;;;;;;;;5035378;28;20229;-71
2022/09/28 00:29:01;;;;;;;13.07;10.10;;;;;;;;;;5035263;28;20226;-71
2022/09/28 00:31:28;;;;;;;13.03;10.30;;;;;;;;;;5017357;28;20175;-71
2022/09/28 00:33:59;;;;;;;11.57;9.60;;;;;;;;;;5035079;28;20582;-73
2022/09/28 00:36:28;;;;;;;13.73;10.23;;;;;;;;;;5034878;28;20281;-71
2022/09/28 00:38:58;;;;;;;12.30;11.00;;;;;;;;;;5034327;28;20229;-72
2022/09/28 00:41:25;;;;;;;16.23;10.87;;;;;;;;;;5034875;28;20249;-72
2022/09/28 00:43:51;;;;;;;12.60;10.20;;;;;;;;;;5034802;28;20182;-72
2022/09/28 00:46:33;;;;;;;16.93;11.80;;;;;;;;;;5034978;28;20240;-72
2022/09/28 00:49:02;;;;;;;13.53;10.63;;;;;;;;;;5034570;28;20199;-71
2022/09/28 00:51:29;;;;;;;14.43;11.43;;;;;;;;;;5016881;28;20193;-70
2022/09/28 00:53:55;;;;;;;13.67;11.67;;;;;;;;;;5034973;28;20258;-72
2022/09/28 00:56:24;;;;;;;18.27;13.67;;;;;;;;;;5034836;28;20195;-70
2022/09/28 00:58:52;;;;;;;15.93;13.03;;;;;;;;;;5034799;28;20183;-70
2022/09/28 01:01:17;;;;;;;20.13;14.17;;;;;;;;;;5035103;28;20180;-71
2022/09/28 01:03:46;;;;;;;20.17;13.73;;;;;;;;;;5019508;28;20324;-70
2022/09/28 01:06:16;;;;;;;18.97;14.00;;;;;;;;;;5020136;28;20242;-71
2022/09/28 01:08:44;;;;;;;18.73;13.40;;;;;;;;;;5036276;28;20199;-70
2022/09/28 01:11:10;;;;;;;17.63;13.53;;;;;;;;;;5020025;28;20181;-70
2022/09/28 01:13:37;;;;;;;17.17;12.50;;;;;;;;;;5019395;28;20265;-72
2022/09/28 01:16:08;;;;;;;14.67;12.97;;;;;;;;;;5036665;28;20180;-71
2022/09/28 01:18:33;;;;;;;13.50;11.50;;;;;;;;;;5036357;28;20171;-73
2022/09/28 01:21:01;;;;;;;15.77;11.50;;;;;;;;;;5017995;28;20662;-71
2022/09/28 01:23:47;;;;;;;15.80;11.70;;;;;;;;;;5036065;28;20176;-71
2022/09/28 01:26:27;;;;;;;14.83;12.33;;;;;;;;;;5035574;28;20286;-72
2022/09/28 01:28:54;;;;;;;18.13;13.40;;;;;;;;;;5035735;28;20253;-71
2022/09/28 01:31:24;;;;;;;14.37;12.53;;;;;;;;;;5036219;28;20175;-72
2022/09/28 01:33:55;;;;;;;17.40;13.20;;;;;;;;;;5036134;28;20171;-71
2022/09/28 01:36:24;;;;;;;16.73;13.17;;;;;;;;;;5039344;28;20203;-71
2022/09/28 01:38:52;;;;;;;15.50;11.60;;;;;;;;;;5041695;28;20179;-71
2022/09/28 01:41:19;;;;;;;16.37;13.47;;;;;;;;;;5039107;28;20175;-71
2022/09/28 01:43:48;;;;;;;18.00;12.53;;;;;;;;;;5037083;28;20214;-72
2022/09/28 01:46:16;;;;;;;17.93;12.57;;;;;;;;;;5036755;28;20267;-71
2022/09/28 01:48:56;;;;;;;17.30;14.23;;;;;;;;;;5023924;28;20203;-71
2022/09/28 01:51:35;;;;;;;18.57;12.90;;;;;;;;;;5045469;28;20579;-71
2022/09/28 01:54:03;;;;;;;18.07;13.10;;;;;;;;;;5040193;28;20185;-71
2022/09/28 01:56:36;;;;;;;18.80;13.33;;;;;;;;;;5035984;28;20638;-70
2022/09/28 01:59:19;;;;;;;20.20;14.13;;;;;;;;;;5035370;28;20179;-71
2022/09/28 02:01:52;;;;;;;19.23;14.27;;;;;;;;;;5036043;28;20167;-72
2022/09/28 02:04:38;;;;;;;17.93;14.93;;;;;;;;;;5017955;28;20167;-71
2022/09/28 02:07:07;;;;;;;20.07;15.13;;;;;;;;;;5034548;28;20210;-71
2022/09/28 02:09:35;;;;;;;17.17;14.97;;;;;;;;;;5035773;28;20199;-71
2022/09/28 02:12:14;;;;;;;19.03;15.10;;;;;;;;;;5017689;28;20180;-72
2022/09/28 02:14:43;;;;;;;20.03;16.10;;;;;;;;;;5035637;28;20168;-71
2022/09/28 02:17:09;;;;;;;21.63;16.83;;;;;;;;;;5016904;28;20687;-72
2022/09/28 02:19:35;;;;;;;23.60;17.10;;;;;;;;;;5015312;28;20187;-72
2022/09/28 02:22:07;;;;;;;24.07;16.37;;;;;;;;;;5033105;28;20187;-71
2022/09/28 02:24:55;;;;;;;22.10;16.77;;;;;;;;;;5033241;28;20680;-72
2022/09/28 02:27:27;;;;;;;26.43;17.37;;;;;;;;;;5015094;28;20241;-71
2022/09/28 02:29:53;;;;;;;21.73;17.30;;;;;;;;;;5033216;28;20194;-70
2022/09/28 02:32:19;;;;;;;24.90;18.63;;;;;;;;;;5032878;28;20171;-70
2022/09/28 02:34:45;;;;;;;24.33;18.20;;;;;;;;;;5015081;28;20187;-69
2022/09/28 02:37:12;;;;;;;22.50;17.90;;;;;;;;;;5032878;28;20199;-72
2022/09/28 02:39:38;;;;;;;24.97;18.50;;;;;;;;;;5032863;28;20266;-71
2022/09/28 02:42:12;;;;;;;26.47;18.83;;;;;;;;;;5015030;28;20218;-72
2022/09/28 02:44:57;;;;;;;22.40;17.50;;;;;;;;;;5015052;28;20520;-69
2022/09/28 02:47:34;;;;;;;25.70;17.87;;;;;;;;;;5032898;28;20218;-72
2022/09/28 02:50:06;;;;;;;25.63;18.27;;;;;;;;;;5033278;28;20667;-71
2022/09/28 02:52:45;;;;;;;25.80;19.63;;;;;;;;;;5015087;28;20236;-72
2022/09/28 02:55:11;;;;;;;25.50;19.13;;;;;;;;;;5033022;28;20190;-72
2022/09/28 02:57:43;;;;;;;24.40;18.13;;;;;;;;;;5032557;28;20270;-72
2022/09/28 03:00:18;;;;;;;33.00;19.30;;;;;;;;;;5032683;28;20186;-71
2022/09/28 03:03:00;;;;;;;29.97;18.20;;;;;;;;;;5018464;28;20183;-71
2022/09/28 03:05:33;;;;;;;27.70;19.67;;;;;;;;;;5036692;28;20202;-72
2022/09/28 03:08:01;;;;;;;31.00;21.97;;;;;;;;;;5036301;28;20203;-71
2022/09/28 03:10:51;;;;;;;33.43;24.90;;;;;;;;;;5018379;28;20175;-72
2022/09/28 03:13:17;;;;;;;30.10;24.47;;;;;;;;;;5026258;28;20198;-71
2022/09/28 03:15:43;;;;;;;29.27;23.70;;;;;;;;;;5036902;28;20233;-69
2022/09/28 03:18:09;;;;;;;28.17;21.63;;;;;;;;;;5018619;28;20273;-72
2022/09/28 03:20:36;;;;;;;25.77;20.90;;;;;;;;;;5036556;28;20179;-71
2022/09/28 03:23:02;;;;;;;24.37;20.13;;;;;;;;;;5036811;28;20182;-69
2022/09/28 03:25:28;;;;;;;28.50;20.70;;;;;;;;;;5038658;28;20176;-71
2022/09/28 03:27:54;;;;;;;28.03;19.87;;;;;;;;;;5019686;28;20214;-73
2022/09/28 03:30:21;;;;;;;26.73;21.03;;;;;;;;;;5018522;28;20631;-71
2022/09/28 03:32:47;;;;;;;28.50;21.47;;;;;;;;;;5036554;28;20183;-71
2022/09/28 03:35:13;;;;;;;26.17;20.57;;;;;;;;;;5036397;28;20171;-71
2022/09/28 03:37:39;;;;;;;29.53;20.60;;;;;;;;;;5018065;28;20205;-70
2022/09/28 03:40:05;;;;;;;25.43;19.63;;;;;;;;;;5018064;28;20183;-71
2022/09/28 03:42:31;;;;;;;26.43;20.00;;;;;;;;;;5035636;28;20262;-72
2022/09/28 03:44:57;;;;;;;29.20;21.97;;;;;;;;;;5017989;28;20655;-69
2022/09/28 03:47:23;;;;;;;26.03;21.00;;;;;;;;;;5017878;28;20203;-71
2022/09/28 03:49:49;;;;;;;30.27;21.63;;;;;;;;;;5035704;28;20282;-71
2022/09/28 03:52:15;;;;;;;29.17;21.97;;;;;;;;;;5035790;28;20175;-71
2022/09/28 03:54:41;;;;;;;28.63;22.80;;;;;;;;;;5036248;28;20210;-72
2022/09/28 03:57:07;;;;;;;36.03;22.50;;;;;;;;;;5018026;28;20206;-72
2022/09/28 03:59:36;;;;;;;33.70;24.33;;;;;;;;;;5035779;28;20529;-71
2022/09/28 04:02:02;;;;;;;33.50;24.87;;;;;;;;;;5035493;28;20182;-70
2022/09/28 04:07:05;;;;;;;40.63;27.50;;;;;;;;;;5034154;28;20206;-66
2022/09/28 04:09:31;;;;;;;36.33;27.97;;;;;;;;;;5017336;28;20635;-66
2022/09/28 04:11:57;;;;;;;35.60;28.00;;;;;;;;;;5016827;28;20644;-66
2022/09/28 04:14:23;;;;;;;37.17;29.23;;;;;;;;;;5017322;28;20638;-67
2022/09/28 04:16:53;;;;;;;36.10;29.10;;;;;;;;;;5034856;28;20719;-67
2022/09/28 04:19:19;;;;;;;42.47;29.17;;;;;;;;;;5034843;28;20706;-67
2022/09/28 04:21:45;;;;;;;42.43;29.50;;;;;;;;;;5035261;28;20214;-67
2022/09/28 04:24:11;;;;;;;44.10;30.13;;;;;;;;;;5017049;28;20640;-68
2022/09/28 04:26:37;;;;;;;42.53;30.50;;;;;;;;;;5034683;28;20201;-67
2022/09/28 04:29:15;;;;;;;40.37;29.37;;;;;;;;;;5034594;28;20203;-67
2022/09/28 04:31:46;;;;;;;39.90;29.40;;;;;;;;;;5034714;28;20217;-67
2022/09/28 04:34:13;;;;;;;37.43;29.47;;;;;;;;;;5035061;28;20179;-67
2022/09/28 04:36:39;;;;;;;41.17;31.33;;;;;;;;;;5016769;28;20289;-68
2022/09/28 04:39:06;;;;;;;41.30;30.00;;;;;;;;;;5016772;28;20270;-67
2022/09/28 04:41:32;;;;;;;39.63;30.17;;;;;;;;;;5034936;28;20179;-67
2022/09/28 04:43:58;;;;;;;41.33;30.80;;;;;;;;;;5016886;28;20187;-67
2022/09/28 04:46:24;;;;;;;41.67;29.53;;;;;;;;;;5016647;28;20575;-67
2022/09/28 04:48:50;;;;;;;38.30;29.87;;;;;;;;;;5034166;28;20694;-67
2022/09/28 04:51:16;;;;;;;44.23;31.70;;;;;;;;;;5034482;28;20175;-68
2022/09/28 04:53:42;;;;;;;40.97;30.80;;;;;;;;;;5016276;28;20187;-67
2022/09/28 04:56:12;;;;;;;38.40;29.83;;;;;;;;;;5033971;28;20364;-67
2022/09/28 04:58:38;;;;;;;43.97;31.20;;;;;;;;;;5016310;28;20209;-67
2022/09/28 05:01:06;;;;;;;49.60;33.57;;;;;;;;;;5033958;28;20548;-67
2022/09/28 05:03:32;;;;;;;40.13;33.50;;;;;;;;;;5033909;28;20183;-67
2022/09/28 05:05:58;;;;;;;41.77;31.07;;;;;;;;;;5033802;28;20726;-66
2022/09/28 05:08:25;;;;;;;40.97;31.57;;;;;;;;;;5016019;28;20206;-67
2022/09/28 05:10:58;;;;;;;44.33;32.20;;;;;;;;;;5033720;28;20171;-67
2022/09/28 05:13:24;;;;;;;42.10;31.93;;;;;;;;;;5034132;28;20155;-67
2022/09/28 05:15:51;;;;;;;46.83;32.20;;;;;;;;;;5033738;28;20199;-67
2022/09/28 05:18:17;;;;;;;43.27;33.07;;;;;;;;;;5033786;28;20588;-66
2022/09/28 05:20:43;;;;;;;41.60;31.20;;;;;;;;;;5033734;28;20175;-67
2022/09/28 05:23:11;;;;;;;39.97;30.73;;;;;;;;;;5033732;28;20553;-66
2022/09/28 05:25:37;;;;;;;41.87;30.73;;;;;;;;;;5033702;28;20187;-66
2022/09/28 05:28:03;;;;;;;43.93;32.43;;;;;;;;;;5033673;28;20187;-67
2022/09/28 05:30:28;;;;;;;40.70;31.00;;;;;;;;;;5033492;28;20186;-67
2022/09/28 05:32:54;;;;;;;39.33;31.27;;;;;;;;;;5033516;28;20187;-67
2022/09/28 05:35:20;;;;;;;42.17;31.63;;;;;;;;;;5033153;28;20205;-67
2022/09/28 05:37:46;;;;;;;40.27;31.10;;;;;;;;;;5033194;28;20171;-67
2022/09/28 05:40:13;;;;;;;42.00;31.00;;;;;;;;;;5015496;28;20183;-67
2022/09/28 05:42:39;;;;;;;41.67;30.33;;;;;;;;;;5033391;28;20179;-67
2022/09/28 05:45:06;;;;;;;41.80;31.87;;;;;;;;;;5033478;28;20231;-67
2022/09/28 05:47:36;;;;;;;42.30;31.60;;;;;;;;;;5033278;28;20180;-67
2022/09/28 05:50:02;;;;;;;43.23;32.77;;;;;;;;;;5033391;28;20195;-67
2022/09/28 05:52:28;;;;;;;44.67;31.77;;;;;;;;;;5033165;28;20312;-67
2022/09/28 05:54:54;;;;;;;43.50;30.97;;;;;;;;;;5015339;28;20572;-67
2022/09/28 05:57:20;;;;;;;40.77;32.33;;;;;;;;;;5033198;28;20697;-67
2022/09/28 05:59:46;;;;;;;42.90;31.83;;;;;;;;;;5016197;28;20766;-67
2022/09/28 06:02:12;;;;;;;44.03;32.17;;;;;;;;;;5015343;28;20197;-67
2022/09/28 06:04:38;;;;;;;42.07;30.77;;;;;;;;;;5033009;28;20569;-67
2022/09/28 06:07:04;;;;;;;46.03;30.87;;;;;;;;;;5032922;28;20574;-67
2022/09/28 06:09:30;;;;;;;41.93;30.80;;;;;;;;;;5015188;28;20734;-67
2022/09/28 06:11:58;;;;;;;39.93;30.90;;;;;;;;;;5033501;28;20184;-67
2022/09/28 06:14:24;;;;;;;40.23;29.70;;;;;;;;;;5015228;28;20183;-66
2022/09/28 06:16:50;;;;;;;35.37;29.23;;;;;;;;;;5032857;28;20195;-67
2022/09/28 06:19:16;;;;;;;39.50;29.03;;;;;;;;;;5033111;28;20654;-67
2022/09/28 06:21:42;;;;;;;40.63;28.87;;;;;;;;;;5033382;28;20245;-67
2022/09/28 06:24:08;;;;;;;36.10;26.93;;;;;;;;;;5032835;28;20182;-67
2022/09/28 06:26:34;;;;;;;33.10;26.30;;;;;;;;;;5032940;28;20202;-67
2022/09/28 06:29:00;;;;;;;34.07;26.57;;;;;;;;;;5032761;28;20199;-67
2022/09/28 06:31:29;;;;;;;30.40;23.40;;;;;;;;;;5032824;28;20228;-67
2022/09/28 06:33:55;;;;;;;32.73;25.63;;;;;;;;;;5033427;28;20175;-67
2022/09/28 06:36:21;;;;;;;32.83;23.57;;;;;;;;;;5016995;28;20568;-66
2022/09/28 06:38:47;;;;;;;28.50;22.83;;;;;;;;;;5036751;28;20187;-67
2022/09/28 06:41:14;;;;;;;29.30;22.10;;;;;;;;;;5036828;28;20202;-66
2022/09/28 06:43:40;;;;;;;26.57;21.17;;;;;;;;;;5019275;28;20190;-66
2022/09/28 06:46:07;;;;;;;29.07;22.17;;;;;;;;;;5036576;28;20203;-66
2022/09/28 06:48:32;;;;;;;25.73;21.93;;;;;;;;;;5036419;28;20207;-67
2022/09/28 06:50:59;;;;;;;27.37;21.13;;;;;;;;;;5036539;28;20745;-66
2022/09/28 06:53:27;;;;;;;26.93;21.03;;;;;;;;;;5036754;28;20254;-67
2022/09/28 06:55:52;;;;;;;26.53;20.43;;;;;;;;;;5037273;28;20667;-66
2022/09/28 06:58:19;;;;;;;23.37;20.00;;;;;;;;;;5037191;28;20248;-66
2022/09/28 07:00:46;;;;;;;24.87;19.70;;;;;;;;;;5036879;28;20644;-66
2022/09/28 07:03:13;;;;;;;23.77;19.50;;;;;;;;;;5018848;28;20269;-68
2022/09/28 07:05:43;;;;;;;20.77;18.53;;;;;;;;;;5036021;28;20268;-66
2022/09/28 07:08:10;;;;;;;21.70;18.73;;;;;;;;;;5036216;28;20211;-66
2022/09/28 07:10:40;;;;;;;20.33;16.67;;;;;;;;;;5018286;28;20214;-66
2022/09/28 07:13:06;;;;;;;19.37;16.87;;;;;;;;;;5018265;28;20179;-67
2022/09/28 07:15:32;;;;;;;18.93;16.93;;;;;;;;;;5018097;28;20667;-66
2022/09/28 07:17:58;;;;;;;25.43;17.00;;;;;;;;;;5018209;28;20186;-66
2022/09/28 07:20:25;;;;;;;18.17;15.43;;;;;;;;;;5036142;28;20183;-66
2022/09/28 07:22:54;;;;;;;21.80;17.30;;;;;;;;;;5018333;28;20563;-66
2022/09/28 07:25:21;;;;;;;17.70;15.90;;;;;;;;;;5035648;28;20257;-66
2022/09/28 07:27:47;;;;;;;17.33;15.40;;;;;;;;;;5018060;28;20193;-66
2022/09/28 07:30:13;;;;;;;17.27;15.13;;;;;;;;;;5035833;28;20226;-66
2022/09/28 07:32:39;;;;;;;17.53;15.40;;;;;;;;;;5017877;28;20184;-66
2022/09/28 07:35:08;;;;;;;19.03;14.37;;;;;;;;;;5035814;28;20253;-66
2022/09/28 07:37:37;;;;;;;16.03;14.30;;;;;;;;;;5036075;28;20182;-66
2022/09/28 07:42:49;;;;;;;17.10;14.37;;;;;;;;;;5036679;28;20202;-67
2022/09/28 07:45:15;;;;;;;21.70;15.90;;;;;;;;;;5017698;28;20207;-67
2022/09/28 07:47:41;;;;;;;15.67;13.43;;;;;;;;;;5034137;28;20209;-67
2022/09/28 07:50:07;;;;;;;15.33;13.23;;;;;;;;;;5035312;28;20573;-67
2022/09/28 07:52:33;;;;;;;15.67;13.30;;;;;;;;;;5035330;28;20172;-67
2022/09/28 07:55:00;;;;;;;14.20;11.70;;;;;;;;;;5017410;28;20203;-67
2022/09/28 07:57:26;;;;;;;15.53;14.00;;;;;;;;;;5035246;28;20175;-68
2022/09/28 07:59:52;;;;;;;14.57;13.07;;;;;;;;;;5035090;28;20179;-68
2022/09/28 08:02:19;;;;;;;13.43;12.13;;;;;;;;;;5017329;28;20183;-67
2022/09/28 08:04:45;;;;;;;14.43;12.93;;;;;;;;;;5035224;28;20241;-68
2022/09/28 08:07:11;;;;;;;14.07;12.37;;;;;;;;;;5035320;28;20171;-67
2022/09/28 08:09:37;;;;;;;13.67;12.30;;;;;;;;;;5034936;28;20207;-67
2022/09/28 08:12:04;;;;;;;12.83;11.53;;;;;;;;;;5035010;28;20561;-67
2022/09/28 08:14:33;;;;;;;13.77;11.87;;;;;;;;;;5034998;28;20175;-68
2022/09/28 08:16:59;;;;;;;13.37;12.00;;;;;;;;;;5035046;28;20174;-67
2022/09/28 08:19:25;;;;;;;13.07;11.97;;;;;;;;;;5017135;28;20190;-67
2022/09/28 08:21:51;;;;;;;13.77;12.03;;;;;;;;;;5017021;28;20183;-67
2022/09/28 08:24:17;;;;;;;12.73;11.33;;;;;;;;;;5017012;28;20194;-67
2022/09/28 08:26:44;;;;;;;14.77;11.53;;;;;;;;;;5016820;28;20207;-67
2022/09/28 08:29:10;;;;;;;13.03;11.07;;;;;;;;;;5016700;28;20262;-67
2022/09/28 08:31:36;;;;;;;14.93;10.13;;;;;;;;;;5016838;28;20668;-68
2022/09/28 08:34:02;;;;;;;11.37;9.43;;;;;;;;;;5034505;28;20207;-67
2022/09/28 08:36:28;;;;;;;11.50;9.20;;;;;;;;;;5034395;28;20195;-67
2022/09/28 08:38:54;;;;;;;10.63;9.43;;;;;;;;;;5034556;28;20258;-67
2022/09/28 08:41:20;;;;;;;11.70;10.20;;;;;;;;;;5016558;28;20256;-68
2022/09/28 08:43:55;;;;;;;10.73;9.67;;;;;;;;;;5034330;28;20648;-67
2022/09/28 08:46:23;;;;;;;10.30;9.33;;;;;;;;;;5016557;28;20293;-68
2022/09/28 08:49:13;;;;;;;12.67;8.83;;;;;;;;;;5016485;28;20260;-68
2022/09/28 08:51:44;;;;;;;10.33;8.90;;;;;;;;;;5021364;28;20277;-67
2022/09/28 08:54:25;;;;;;;12.50;10.67;;;;;;;;;;5034523;28;20237;-67
2022/09/28 08:56:55;;;;;;;10.17;9.27;;;;;;;;;;5034134;28;20203;-68
2022/09/28 08:59:23;;;;;;;9.47;8.60;;;;;;;;;;5033745;28;20261;-67
2022/09/28 09:01:55;;;;;;;10.43;8.20;;;;;;;;;;5034315;28;20175;-66
2022/09/28 09:04:21;;;;;;;9.93;8.30;;;;;;;;;;5016396;28;20176;-67
2022/09/28 09:06:54;;;;;;;9.87;8.43;;;;;;;;;;5033940;28;20646;-67
2022/09/28 09:09:23;;;;;;;10.40;9.33;;;;;;;;;;5016243;28;20203;-67
2022/09/28 09:12:06;;;;;;;11.57;9.37;;;;;;;;;;5016071;28;20229;-67
2022/09/28 09:14:47;;;;;;;11.47;10.40;;;;;;;;;;5034341;28;20163;-67
2022/09/28 09:17:29;;;;;;;12.23;11.03;;;;;;;;;;5034011;28;20211;-69
2022/09/28 09:20:15;;;;;;;12.57;11.37;;;;;;;;;;5033808;28;20561;-69
2022/09/28 09:22:50;;;;;;;12.37;11.03;;;;;;;;;;5034016;28;20173;-70
2022/09/28 09:25:18;;;;;;;11.27;10.17;;;;;;;;;;5033652;28;20195;-68
2022/09/28 09:28:03;;;;;;;11.97;10.63;;;;;;;;;;5015968;28;20237;-68
2022/09/28 09:30:34;;;;;;;10.50;9.60;;;;;;;;;;5015895;28;20218;-68
2022/09/28 09:33:22;;;;;;;12.03;9.33;;;;;;;;;;5033778;28;20190;-69
2022/09/28 09:35:48;;;;;;;10.67;9.60;;;;;;;;;;5033525;28;20198;-68
2022/09/28 09:38:17;;;;;;;8.50;7.80;;;;;;;;;;5015779;28;20179;-68
2022/09/28 09:40:50;;;;;;;8.80;7.90;;;;;;;;;;5015866;28;20183;-68
2022/09/28 09:43:34;;;;;;;7.77;7.07;;;;;;;;;;5033460;28;20254;-68
2022/09/28 09:46:14;;;;;;;9.27;7.07;;;;;;;;;;5015675;28;20757;-68
2022/09/28 09:48:46;;;;;;;8.90;6.93;;;;;;;;;;5033584;28;20655;-68
2022/09/28 09:51:15;;;;;;;7.40;6.60;;;;;;;;;;5015635;28;20210;-68
2022/09/28 09:53:46;;;;;;;8.07;7.33;;;;;;;;;;5015684;28;20176;-68
2022/09/28 09:56:14;;;;;;;7.30;6.50;;;;;;;;;;5033748;28;20195;-68
2022/09/28 09:58:43;;;;;;;6.77;6.27;;;;;;;;;;5015487;28;20187;-69
2022/09/28 10:01:15;;;;;;;7.43;6.73;;;;;;;;;;5033695;28;20208;-68
2022/09/28 10:03:42;;;;;;;7.37;6.30;;;;;;;;;;5033204;28;20669;-69
2022/09/28 10:06:15;;;;;;;7.30;5.77;;;;;;;;;;5015259;28;20218;-68
2022/09/28 10:08:44;;;;;;;7.00;5.90;;;;;;;;;;5033051;28;20206;-68
2022/09/28 10:11:12;;;;;;;7.17;5.90;;;;;;;;;;5035117;28;20191;-68
2022/09/28 10:13:39;;;;;;;5.67;5.10;;;;;;;;;;5019529;28;20183;-68
2022/09/28 10:16:06;;;;;;;7.37;5.20;;;;;;;;;;5019413;28;20237;-69
2022/09/28 10:18:32;;;;;;;7.33;5.50;;;;;;;;;;5037119;28;20233;-68
2022/09/28 10:20:58;;;;;;;5.97;5.30;;;;;;;;;;5062018;23;20194;-68
2022/09/28 10:23:26;;;;;;;9.53;5.80;;;;;;;;;;5038958;28;20198;-69
2022/09/28 10:25:53;;;;;;;9.23;5.50;;;;;;;;;;5057124;28;20228;-67
2022/09/28 10:28:25;;;;;;;7.60;5.90;;;;;;;;;;5056974;28;20193;-67
2022/09/28 10:30:51;;;;;;;6.80;6.07;;;;;;;;;;5039184;28;20565;-67
2022/09/28 10:33:29;;;;;;;8.27;4.83;;;;;;;;;;5057063;28;20170;-67
2022/09/28 10:35:55;;;;;;;5.63;5.10;;;;;;;;;;5056975;28;20590;-67
2022/09/28 10:38:21;;;;;;;9.83;8.10;;;;;;;;;;5039066;28;20665;-69
2022/09/28 10:40:49;;;;;;;7.23;6.27;;;;;;;;;;5057145;28;20195;-67
2022/09/28 10:43:15;;;;;;;7.63;5.53;;;;;;;;;;5056988;28;20655;-67
2022/09/28 10:45:41;;;;;;;11.00;7.17;;;;;;;;;;5039060;28;20216;-68
2022/09/28 10:48:14;;;;;;;6.67;5.17;;;;;;;;;;5057408;28;20236;-67
2022/09/28 10:50:41;;;;;;;10.83;5.20;;;;;;;;;;5056836;28;20163;-67
2022/09/28 10:53:15;;;;;;;6.83;4.67;;;;;;;;;;5038522;28;20200;-67
2022/09/28 10:55:41;;;;;;;4.13;3.43;;;;;;;;;;5038542;28;20708;-67
2022/09/28 10:58:22;;;;;;;7.00;4.30;;;;;;;;;;5038780;28;20210;-67
2022/09/28 11:00:49;;;;;;;6.77;3.97;;;;;;;;;;5038571;28;20702;-67
2022/09/28 11:03:20;;;;;;;5.80;3.60;;;;;;;;;;5038489;28;20186;-67
2022/09/28 11:06:15;;;;;;;5.77;3.90;;;;;;;;;;5038527;28;20183;-67
2022/09/28 11:08:42;;;;;;;4.97;3.60;;;;;;;;;;5013930;28;20679;-67
2022/09/28 11:11:09;;;;;;;5.37;4.20;;;;;;;;;;5056730;28;20185;-68
2022/09/28 11:13:40;;;;;;;7.63;3.70;;;;;;;;;;5038131;28;20178;-68
2022/09/28 11:16:06;;;;;;;3.57;3.27;;;;;;;;;;5056620;28;20178;-68
2022/09/28 11:18:33;;;;;;;7.20;3.83;;;;;;;;;;5056184;28;20200;-68
2022/09/28 11:21:16;;;;;;;7.17;3.70;;;;;;;;;;5037921;28;20182;-67
2022/09/28 11:23:54;;;;;;;5.27;4.00;;;;;;;;;;5056050;28;20662;-68
2022/09/28 11:26:20;;;;;;;8.23;5.00;;;;;;;;;;5038431;28;20178;-67
2022/09/28 11:28:50;;;;;;;7.13;6.07;;;;;;;;;;5038135;28;20206;-67
2022/09/28 11:31:17;;;;;;;6.40;4.00;;;;;;;;;;5056003;28;20736;-68
2022/09/28 11:33:44;;;;;;;7.17;5.37;;;;;;;;;;5037935;28;20187;-68
2022/09/28 11:36:13;;;;;;;4.10;3.47;;;;;;;;;;5038077;28;20213;-68
2022/09/28 11:39:03;;;;;;;7.17;4.57;;;;;;;;;;5055752;28;20186;-68
2022/09/28 11:41:39;;;;;;;8.97;5.30;;;;;;;;;;5055863;28;20672;-68
2022/09/28 11:44:11;;;;;;;6.77;6.17;;;;;;;;;;5055684;28;20158;-68
2022/09/28 11:46:56;;;;;;;3.93;3.60;;;;;;;;;;5037694;28;20182;-69
2022/09/28 11:49:39;;;;;;;5.67;4.00;;;;;;;;;;5037471;28;20213;-68
2022/09/28 11:52:26;;;;;;;3.73;3.43;;;;;;;;;;5055355;28;20199;-68
2022/09/28 11:55:04;;;;;;;4.50;3.47;;;;;;;;;;5055225;28;20217;-68
2022/09/28 11:57:34;;;;;;;3.90;3.13;;;;;;;;;;5055473;28;20174;-69
2022/09/28 12:00:02;;;;;;;4.33;2.83;;;;;;;;;;5037267;28;20210;-68
2022/09/28 12:02:28;;;;;;;3.50;2.80;;;;;;;;;;5055086;28;20191;-68
2022/09/28 12:04:56;;;;;;;4.07;2.97;;;;;;;;;;5055541;28;20182;-68
2022/09/28 12:07:25;;;;;;;4.53;3.00;;;;;;;;;;5055284;28;20709;-68
2022/09/28 12:10:10;;;;;;;6.23;3.03;;;;;;;;;;5055173;28;20213;-68
2022/09/28 12:12:39;;;;;;;3.30;2.50;;;;;;;;;;5055231;28;20195;-67
2022/09/28 12:15:13;;;;;;;3.90;2.40;;;;;;;;;;5037126;28;20206;-68
2022/09/28 12:17:42;;;;;;;3.97;2.50;;;;;;;;;;5037310;28;20174;-68
2022/09/28 12:20:37;;;;;;;2.77;2.50;;;;;;;;;;5037270;28;20186;-68
2022/09/28 12:23:11;;;;;;;2.83;2.50;;;;;;;;;;5029657;28;20297;-68
2022/09/28 12:25:49;;;;;;;4.10;2.90;;;;;;;;;;5054962;28;20163;-68
2022/09/28 12:28:26;;;;;;;4.30;2.70;;;;;;;;;;5055410;28;20246;-68
2022/09/28 12:30:54;;;;;;;2.43;2.23;;;;;;;;;;5054907;28;20162;-68
2022/09/28 12:33:20;;;;;;;3.90;3.33;;;;;;;;;;5053975;28;20182;-68
2022/09/28 12:35:58;;;;;;;3.83;2.33;;;;;;;;;;5054668;28;20179;-68
2022/09/28 12:38:39;;;;;;;3.17;2.67;;;;;;;;;;5054785;28;20213;-68
2022/09/28 12:41:11;;;;;;;4.37;2.27;;;;;;;;;;5055065;28;20251;-69
2022/09/28 12:43:43;;;;;;;2.40;2.20;;;;;;;;;;5036516;28;20669;-68
2022/09/28 12:46:19;;;;;;;2.80;2.13;;;;;;;;;;5055140;28;20182;-68
2022/09/28 12:48:51;;;;;;;7.87;3.33;;;;;;;;;;5036423;28;20209;-66
2022/09/28 12:51:31;;;;;;;10.40;2.80;;;;;;;;;;5036823;28;20565;-67
2022/09/28 12:53:57;;;;;;;2.73;2.53;;;;;;;;;;5037837;28;20258;-70
2022/09/28 12:56:46;;;;;;;2.93;2.27;;;;;;;;;;5054991;28;20210;-68
2022/09/28 12:59:20;;;;;;;2.60;2.40;;;;;;;;;;5052670;28;20197;-66
2022/09/28 13:01:46;;;;;;;2.40;2.20;;;;;;;;;;5054330;28;20693;-66
2022/09/28 13:04:25;;;;;;;2.10;2.00;;;;;;;;;;5036900;28;20179;-68
2022/09/28 13:07:14;;;;;;;2.43;2.20;;;;;;;;;;5055794;28;20174;-67
2022/09/28 13:09:58;;;;;;;2.53;2.03;;;;;;;;;;5054789;28;20202;-67
2022/09/28 13:12:36;;;;;;;2.67;2.20;;;;;;;;;;5036696;28;20220;-67
2022/09/28 13:15:11;;;;;;;2.97;2.50;;;;;;;;;;5054412;28;20214;-68
2022/09/28 13:17:37;;;;;;;3.03;2.67;;;;;;;;;;5053932;28;20699;-68
2022/09/28 13:20:03;;;;;;;3.33;2.90;;;;;;;;;;5054251;28;20174;-68
2022/09/28 13:22:38;;;;;;;5.43;4.80;;;;;;;;;;5054076;28;20300;-68
2022/09/28 13:25:10;;;;;;;3.23;2.93;;;;;;;;;;5054240;28;20174;-68
2022/09/28 13:27:39;;;;;;;4.33;3.27;;;;;;;;;;5036446;28;20179;-68
2022/09/28 13:30:06;;;;;;;5.10;3.13;;;;;;;;;;5054747;28;20206;-68
2022/09/28 13:32:33;;;;;;;3.33;3.13;;;;;;;;;;5036533;28;20259;-70
2022/09/28 13:35:04;;;;;;;7.07;3.60;;;;;;;;;;5036906;28;20214;-68
2022/09/28 13:37:30;;;;;;;4.73;3.60;;;;;;;;;;5054871;28;20158;-68
2022/09/28 13:39:57;;;;;;;4.03;3.50;;;;;;;;;;5054548;28;20667;-68
2022/09/28 13:42:23;;;;;;;4.63;3.93;;;;;;;;;;5036145;28;20206;-69
2022/09/28 13:44:49;;;;;;;5.37;4.20;;;;;;;;;;5036104;28;20186;-69
2022/09/28 13:47:21;;;;;;;3.90;3.60;;;;;;;;;;5035925;28;20189;-69
2022/09/28 13:49:53;;;;;;;3.67;3.47;;;;;;;;;;5036319;28;20206;-68
2022/09/28 13:52:22;;;;;;;7.30;2.97;;;;;;;;;;5054292;28;20696;-68
2022/09/28 13:54:55;;;;;;;4.30;3.00;;;;;;;;;;5054270;28;20225;-69
2022/09/28 13:57:29;;;;;;;7.73;3.10;;;;;;;;;;5054017;28;20171;-69
2022/09/28 14:00:07;;;;;;;4.73;2.90;;;;;;;;;;5053530;28;20217;-69
2022/09/28 14:02:40;;;;;;;3.47;3.17;;;;;;;;;;5035569;28;20193;-69
2022/09/28 14:05:26;;;;;;;3.37;3.17;;;;;;;;;;5035221;28;20202;-69
2022/09/28 14:08:07;;;;;;;3.97;3.63;;;;;;;;;;5053072;28;20625;-69
2022/09/28 14:10:53;;;;;;;4.10;3.70;;;;;;;;;;5035201;28;20206;-68
2022/09/28 14:13:38;;;;;;;5.77;3.60;;;;;;;;;;5053024;28;20175;-67
2022/09/28 14:16:27;;;;;;;6.33;4.10;;;;;;;;;;5035191;28;20205;-68
2022/09/28 14:18:59;;;;;;;5.47;4.20;;;;;;;;;;5035359;28;20323;-68
2022/09/28 14:21:44;;;;;;;5.00;3.40;;;;;;;;;;5034980;28;20221;-69
2022/09/28 14:24:13;;;;;;;7.20;5.13;;;;;;;;;;5053133;28;20186;-68
2022/09/28 14:26:52;;;;;;;7.23;6.10;;;;;;;;;;5053217;28;20189;-69
2022/09/28 14:29:28;;;;;;;5.20;4.00;;;;;;;;;;5053148;28;20202;-69
2022/09/28 14:31:57;;;;;;;3.40;2.67;;;;;;;;;;5052893;28;20548;-69
2022/09/28 14:34:33;;;;;;;2.23;2.03;;;;;;;;;;5034920;28;20182;-69
2022/09/28 14:42:30;;;;;;;1.60;1.43;;;;;;;;;;5053039;28;20213;-69
2022/09/28 14:45:02;;;;;;;2.90;1.47;;;;;;;;;;5052817;28;20183;-69
2022/09/28 14:48:02;;;;;;;1.90;1.30;;;;;;;;;;5052894;28;20666;-69
2022/09/28 14:50:29;;;;;;;1.40;1.27;;;;;;;;;;5052873;28;20708;-69
2022/09/28 14:53:05;;;;;;;1.23;1.17;;;;;;;;;;5034736;28;20285;-69
2022/09/28 14:55:38;;;;;;;1.33;1.20;;;;;;;;;;5053115;28;20162;-68
2022/09/28 14:58:06;;;;;;;1.73;1.40;;;;;;;;;;5056260;28;20165;-69